Columbus, IN

2:20 PM EDT on August 28, 2016 (GMT -0400)
Jackson St. | | Change Station

Elev 627 ft 39.21 °N, 85.92 °W | Updated 3 seconds ago

Scattered Clouds
Scattered Clouds
90.7 °F
Feels Like 101 °F
N
4.0
Wind Variable Wind from WSW
Gusts 8.0 mph

Today
High -- | Low -- °F
--% Chance of Precip.
Yesterday
High -- | Low -- °F
Precip. -- in
Pressure 30.19 in
Visibility 10.0 miles
Clouds Scattered Clouds 2800 ft
Heat Index 101 °F
Dew Point 75 °F
Humidity 60%
Rainfall 0.00 in
Snow Depth Not available.
7:09 AM 8:19 PM
Waning Crescent, 14% visible
METAR KBAK 281745Z 15003KT 10SM SCT028 31/25 A3019
Pressure 30.19 in
Visibility 10.0 miles
Clouds Scattered Clouds 2800 ft
Heat Index 101 °F
Dew Point 75 °F
Humidity 60%
Rainfall 0.00 in
Snow Depth Not available.
7:09 AM 8:19 PM
Waning Crescent, 14% visible
METAR KBAK 281745Z 15003KT 10SM SCT028 31/25 A3019

10-Day Weather Forecast

Almanac

Astronomy

Aug. 28, 2016 Rise Set
Actual Time
Civil Twilight
Nautical Twilight
Astronomical Twilight
Moon
Length of Visible Light
Length of Day
Tomorrow will be .
, % of the Moon is Illuminated

Today's Extremes

State Highs State Lows

Community

WunderPhotos

Upload Photos

1,935,644 photos uploaded!

WunderBlog® & News

Nearby

Air Quality

  Air Quality AQ Index Pollutant
Not available.

Snow Depth

Station Depth Elevation

Earthquake Activity

City Distance Mag. Time & Date
Minimum magnitude displayed is 2.5.

Coastal Water Temperatures

Place Temperature

Stations

Nearby Weather Stations

Station Location Temp. Windchill Dew Point Humidity Wind Precip. Elev Updated Type
                   

Watches & Warnings

There are currently no watches in effect.